createdAt,value
2019-05-23T03:02:58.404Z,99.90
2019-05-23T03:05:27.063Z,99.90
2019-05-23T03:07:56.204Z,99.90
2019-05-23T03:10:26.749Z,99.90
2019-05-23T03:12:55.587Z,99.90
2019-05-23T03:15:25.140Z,99.90
2019-05-23T03:17:55.596Z,99.90
2019-05-23T03:20:24.504Z,99.90
2019-05-23T03:22:58.487Z,99.90
2019-05-23T03:26:08.324Z,99.90
2019-05-23T03:28:40.590Z,99.90
2019-05-23T03:31:28.149Z,99.90
2019-05-23T03:33:44.035Z,99.90
2019-05-23T03:36:13.251Z,99.90
2019-05-23T03:38:42.287Z,99.90
2019-05-23T03:41:10.936Z,99.90
2019-05-23T03:43:42.065Z,99.90
2019-05-23T03:46:13.218Z,99.90
2019-05-23T03:48:42.124Z,99.90
2019-05-23T03:51:12.436Z,99.90
2019-05-23T03:53:42.294Z,99.90
2019-05-23T03:56:11.141Z,99.90
2019-05-23T03:58:40.854Z,99.90
2019-05-23T04:01:11.347Z,99.90
2019-05-23T04:03:42.198Z,99.90
2019-05-23T04:06:10.841Z,99.90
2019-05-23T04:08:40.337Z,99.90
2019-05-23T04:11:09.172Z,99.90
2019-05-23T04:13:38.647Z,99.90
2019-05-23T04:16:07.391Z,99.90
2019-05-23T04:18:35.965Z,99.90
2019-05-23T04:21:04.843Z,99.90
2019-05-23T04:23:33.443Z,99.90
2019-05-23T04:26:02.293Z,99.90
2019-05-23T04:28:30.949Z,99.90
2019-05-23T04:31:00.461Z,99.90
2019-05-23T04:33:29.011Z,99.90
2019-05-23T04:35:57.610Z,99.90
2019-05-23T04:38:26.199Z,99.90
2019-05-23T04:40:54.856Z,99.90
2019-05-23T04:43:23.735Z,99.90
2019-05-23T04:45:52.315Z,99.90
2019-05-23T04:48:20.882Z,99.90
2019-05-23T04:50:49.476Z,99.90
2019-05-23T04:53:18.826Z,99.90
2019-05-23T04:55:47.860Z,99.90
2019-05-23T04:58:17.019Z,99.90
2019-05-23T05:00:45.747Z,99.90
2019-05-23T05:03:17.929Z,99.90
2019-05-23T05:05:45.666Z,99.90
2019-05-23T05:08:15.038Z,99.90
2019-05-23T05:10:44.990Z,99.90
2019-05-23T05:13:13.590Z,99.90
2019-05-23T05:15:42.492Z,99.90
2019-05-23T05:18:11.439Z,99.90
2019-05-23T05:20:40.321Z,99.90
2019-05-23T05:23:08.895Z,99.90
2019-05-23T05:25:37.856Z,99.90
2019-05-23T05:28:06.768Z,99.90
2019-05-23T05:30:35.841Z,99.90
2019-05-23T05:33:04.516Z,99.90
2019-05-23T05:35:35.096Z,99.90
2019-05-23T05:38:03.765Z,99.90
2019-05-23T05:40:33.128Z,99.90
2019-05-23T05:43:01.921Z,99.90
2019-05-23T05:45:31.499Z,99.90
2019-05-23T05:48:00.356Z,99.90
2019-05-23T05:50:29.425Z,99.90
2019-05-23T05:52:58.385Z,99.90
2019-05-23T05:55:27.040Z,99.90
2019-05-23T05:57:55.651Z,99.90
2019-05-23T06:00:43.510Z,99.90
2019-05-23T06:03:12.675Z,99.90
2019-05-23T06:06:00.349Z,99.90
2019-05-23T06:08:30.780Z,99.90
2019-05-23T06:10:59.503Z,99.90
2019-05-23T06:13:28.308Z,99.90
2019-05-23T06:16:00.107Z,99.90
2019-05-23T06:18:31.875Z,99.90
2019-05-23T06:21:02.477Z,99.90
2019-05-23T06:23:31.832Z,99.90
2019-05-23T06:26:00.489Z,99.90
2019-05-23T06:28:29.324Z,99.90
2019-05-23T06:30:58.174Z,99.90
2019-05-23T06:33:26.944Z,99.90
2019-05-23T06:35:55.748Z,99.90
2019-05-23T06:38:24.689Z,99.90
2019-05-23T06:40:54.439Z,99.90
2019-05-23T06:43:23.312Z,99.90
2019-05-23T06:45:51.976Z,99.90
2019-05-23T06:48:20.969Z,99.90
2019-05-23T06:50:49.855Z,99.90
2019-05-23T06:53:18.755Z,99.90
2019-05-23T06:55:47.369Z,99.90
2019-05-23T06:58:16.648Z,99.90
2019-05-23T07:00:45.277Z,99.90
2019-05-23T07:03:13.890Z,99.90
2019-05-23T07:05:42.868Z,99.90
2019-05-23T07:08:11.500Z,99.90
2019-05-23T07:10:40.977Z,99.90
2019-05-23T07:13:09.643Z,99.90
2019-05-23T07:15:38.364Z,99.90
2019-05-23T07:18:07.299Z,99.90
2019-05-23T07:20:35.867Z,99.90
2019-05-23T07:23:07.115Z,99.90
2019-05-23T07:25:35.798Z,99.90
2019-05-23T07:28:04.432Z,99.90
2019-05-23T07:30:33.015Z,99.90
2019-05-23T07:33:01.590Z,99.90
2019-05-23T07:35:30.189Z,99.90
2019-05-23T07:37:58.803Z,99.90
2019-05-23T07:40:27.842Z,99.90
2019-05-23T07:42:56.514Z,99.90
2019-05-23T07:45:30.640Z,99.90
2019-05-23T07:47:59.907Z,99.90
2019-05-23T07:50:28.491Z,99.90
2019-05-23T07:52:58.871Z,98.10
2019-05-23T07:55:37.943Z,95.30
2019-05-23T07:58:07.196Z,95.50
2019-05-23T08:00:39.572Z,92.80
2019-05-23T08:03:08.707Z,92.90
2019-05-23T08:05:37.288Z,90.70
2019-05-23T08:08:05.980Z,84.50
2019-05-23T08:10:35.207Z,85.00
2019-05-23T08:13:03.812Z,76.80
2019-05-23T08:15:32.391Z,82.90
2019-05-23T08:18:00.958Z,73.80
2019-05-23T08:20:29.619Z,79.00
2019-05-23T08:22:58.199Z,71.50
2019-05-23T08:25:27.040Z,75.10
2019-05-23T08:27:55.681Z,74.90
2019-05-23T08:30:25.533Z,72.10
2019-05-23T08:32:54.499Z,67.80
2019-05-23T08:35:23.062Z,60.90
2019-05-23T08:37:52.136Z,62.70
2019-05-23T08:40:22.368Z,67.50
2019-05-23T08:42:51.498Z,71.80
2019-05-23T08:45:20.135Z,61.00
2019-05-23T08:47:48.783Z,64.70
2019-05-23T08:50:18.367Z,65.10
2019-05-23T08:52:46.992Z,65.40
2019-05-23T08:55:20.279Z,65.80
2019-05-23T08:57:48.948Z,64.40
2019-05-23T09:00:17.972Z,66.10
2019-05-23T09:02:48.127Z,61.00
2019-05-23T09:05:17.616Z,67.90
2019-05-23T09:07:46.287Z,63.90
2019-05-23T09:10:15.674Z,60.10
2019-05-23T09:12:44.930Z,56.20
2019-05-23T09:15:14.063Z,61.40
2019-05-23T09:17:52.800Z,59.40
2019-05-23T09:20:14.162Z,63.30
2019-05-23T09:22:42.999Z,68.30
2019-05-23T09:25:11.841Z,73.20
2019-05-23T09:27:40.461Z,67.80
2019-05-23T09:30:09.480Z,68.30
2019-05-23T09:32:38.044Z,64.30
2019-05-23T09:35:20.331Z,65.50
2019-05-23T09:37:37.411Z,63.40
2019-05-23T09:40:06.345Z,65.80
2019-05-23T09:42:34.926Z,61.50
2019-05-23T09:45:03.503Z,62.20
2019-05-23T09:47:32.153Z,62.40
2019-05-23T09:50:00.727Z,64.60
2019-05-23T09:52:30.399Z,63.80
2019-05-23T09:54:59.051Z,61.00
2019-05-23T09:57:28.523Z,59.70
2019-05-23T09:59:57.256Z,60.80
2019-05-23T10:02:27.504Z,63.50
2019-05-23T10:04:57.116Z,68.20
2019-05-23T10:07:26.146Z,72.10
2019-05-23T10:09:54.792Z,67.90
2019-05-23T10:12:23.493Z,67.50
2019-05-23T10:14:52.080Z,71.90
2019-05-23T10:17:20.771Z,61.40
2019-05-23T10:19:49.342Z,68.20
2019-05-23T10:22:17.944Z,62.60
2019-05-23T10:24:46.520Z,64.80
2019-05-23T10:27:16.802Z,68.70
2019-05-23T10:29:45.440Z,67.50
2019-05-23T10:32:14.125Z,60.60
2019-05-23T10:34:42.719Z,63.20
2019-05-23T10:37:14.423Z,69.60
2019-05-23T10:39:46.664Z,61.20
2019-05-23T10:42:15.226Z,64.70
2019-05-23T10:44:44.945Z,58.60
2019-05-23T10:47:14.190Z,60.20
2019-05-23T10:49:42.974Z,58.20
2019-05-23T10:52:11.577Z,64.70
2019-05-23T10:54:40.524Z,61.30
2019-05-23T10:57:09.174Z,62.50
2019-05-23T10:59:37.869Z,53.30
2019-05-23T11:02:07.435Z,58.30
2019-05-23T11:04:46.064Z,56.90
2019-05-23T11:07:49.517Z,63.00
2019-05-23T11:10:18.531Z,54.70
2019-05-23T11:12:47.347Z,62.30
2019-05-23T11:15:16.299Z,54.50
2019-05-23T11:17:45.199Z,52.00
2019-05-23T11:20:13.887Z,54.30
2019-05-23T11:22:42.895Z,55.20
2019-05-23T11:25:13.576Z,63.00
2019-05-23T11:27:42.224Z,58.80
2019-05-23T11:30:14.412Z,59.40
2019-05-23T11:32:43.221Z,65.50
2019-05-23T11:35:15.125Z,55.40
2019-05-23T11:37:43.709Z,55.70
2019-05-23T11:40:12.794Z,58.60
2019-05-23T11:42:43.838Z,60.30
2019-05-23T11:45:12.530Z,58.00
2019-05-23T11:47:41.417Z,60.40
2019-05-23T11:50:10.188Z,65.20
2019-05-23T11:52:39.335Z,60.70
2019-05-23T11:55:08.263Z,61.40
2019-05-23T11:57:38.464Z,61.50
2019-05-23T12:00:09.065Z,58.90
2019-05-23T12:02:41.165Z,65.70
2019-05-23T12:05:13.840Z,68.60
2019-05-23T12:07:42.526Z,61.90
2019-05-23T12:10:11.740Z,55.20
2019-05-23T12:12:40.349Z,56.40
2019-05-23T12:15:11.106Z,56.80
2019-05-23T12:17:39.792Z,56.30
2019-05-23T12:20:08.829Z,51.60
2019-05-23T12:22:37.904Z,55.90
2019-05-23T12:25:21.358Z,53.60
2019-05-23T12:27:37.553Z,53.90
2019-05-23T12:30:07.963Z,54.70
2019-05-23T12:32:36.599Z,51.50
2019-05-23T12:35:11.178Z,50.60
2019-05-23T12:37:36.123Z,54.40
2019-05-23T12:40:05.271Z,55.30
2019-05-23T12:42:34.077Z,53.50
2019-05-23T12:45:03.160Z,53.80
2019-05-23T12:47:44.925Z,53.00
2019-05-23T12:50:16.448Z,55.10
2019-05-23T12:52:45.279Z,56.40
2019-05-23T12:55:13.921Z,55.50
2019-05-23T12:57:42.576Z,53.20
2019-05-23T13:00:17.180Z,57.20
2019-05-23T13:02:46.278Z,54.40
2019-05-23T13:05:15.073Z,56.30
2019-05-23T13:07:44.592Z,57.80
2019-05-23T13:10:14.595Z,56.70
2019-05-23T13:12:43.355Z,57.70
2019-05-23T13:15:12.262Z,53.30
2019-05-23T13:17:41.084Z,58.10
2019-05-23T13:20:09.863Z,58.70
2019-05-23T13:22:38.501Z,55.50
2019-05-23T13:25:07.752Z,56.00
2019-05-23T13:27:36.426Z,58.20
2019-05-23T13:30:05.483Z,52.20
2019-05-23T13:32:34.742Z,55.70
2019-05-23T13:35:03.466Z,55.90
2019-05-23T13:37:32.088Z,52.40
2019-05-23T13:40:00.678Z,52.40
2019-05-23T13:42:29.575Z,51.80
2019-05-23T13:44:58.387Z,51.60
2019-05-23T13:47:26.996Z,51.10
2019-05-23T13:49:55.688Z,51.90
2019-05-23T13:52:24.362Z,49.70
2019-05-23T13:54:52.923Z,50.00
2019-05-23T13:57:21.535Z,54.20
2019-05-23T13:59:50.100Z,53.00
2019-05-23T14:02:19.225Z,50.80
2019-05-23T14:04:48.008Z,53.30
2019-05-23T14:07:17.291Z,51.90
2019-05-23T14:09:46.041Z,53.50
2019-05-23T14:12:22.304Z,52.90
2019-05-23T14:14:45.642Z,50.80
2019-05-23T14:17:25.602Z,50.60
2019-05-23T14:19:54.191Z,53.30
2019-05-23T14:22:22.957Z,52.20
2019-05-23T14:24:51.527Z,51.60
2019-05-23T14:27:38.137Z,53.70
2019-05-23T14:30:14.443Z,56.20
2019-05-23T14:32:48.478Z,53.90
2019-05-23T14:35:19.907Z,54.50
2019-05-23T14:37:50.794Z,60.50
2019-05-23T14:40:19.360Z,55.90
2019-05-23T14:43:02.445Z,55.00
2019-05-23T14:45:41.058Z,56.40
2019-05-23T14:48:32.860Z,56.60
2019-05-23T14:51:09.077Z,57.30
2019-05-23T14:53:38.911Z,56.50
2019-05-23T14:56:08.455Z,57.50
2019-05-23T14:58:37.222Z,60.50
2019-05-23T15:01:07.164Z,60.50
2019-05-23T15:03:36.441Z,58.80
2019-05-23T15:06:05.011Z,58.40
2019-05-23T15:08:49.816Z,59.80
2019-05-23T15:11:04.588Z,60.00
2019-05-23T15:13:33.158Z,59.60
2019-05-23T15:16:01.751Z,59.30
2019-05-23T15:18:30.312Z,59.40
2019-05-23T15:20:58.955Z,60.40
2019-05-23T15:23:27.590Z,61.40
2019-05-23T15:25:56.227Z,61.10
2019-05-23T15:28:24.824Z,61.90
2019-05-23T15:30:53.380Z,60.80
2019-05-23T15:33:22.086Z,62.20
2019-05-23T15:35:50.925Z,61.50
2019-05-23T15:38:19.482Z,60.40
2019-05-23T15:40:48.068Z,60.50
2019-05-23T15:43:16.641Z,60.50
2019-05-23T15:45:45.270Z,61.90
2019-05-23T15:48:13.895Z,63.00
2019-05-23T15:50:49.982Z,61.70
2019-05-23T15:53:49.764Z,62.90
2019-05-23T15:56:43.225Z,61.70
2019-05-23T15:59:20.778Z,61.60
2019-05-23T16:02:02.971Z,61.00
2019-05-23T16:04:31.973Z,62.40
2019-05-23T16:07:00.572Z,60.50
2019-05-23T16:09:31.055Z,60.50
2019-05-23T16:11:59.888Z,61.60
2019-05-23T16:14:28.494Z,60.50
2019-05-23T16:16:57.414Z,62.90
2019-05-23T16:19:26.206Z,63.20
2019-05-23T16:21:54.989Z,62.60
2019-05-23T16:24:31.540Z,63.40
2019-05-23T16:27:01.433Z,61.80
2019-05-23T16:29:31.039Z,64.00
2019-05-23T16:31:59.683Z,64.10
2019-05-23T16:34:29.605Z,64.70
2019-05-23T16:36:58.173Z,66.50
2019-05-23T16:39:26.950Z,63.50
2019-05-23T16:41:55.850Z,63.90
2019-05-23T16:44:25.342Z,62.70
2019-05-23T16:46:54.024Z,63.60
2019-05-23T16:49:22.741Z,64.70
2019-05-23T16:51:51.324Z,63.20
2019-05-23T16:54:22.438Z,61.50
2019-05-23T16:57:01.583Z,63.60
2019-05-23T16:59:43.818Z,66.00
2019-05-23T17:02:34.681Z,62.00
2019-05-23T17:05:16.033Z,62.90
2019-05-23T17:08:05.117Z,62.90
2019-05-23T17:10:39.249Z,63.50
2019-05-23T17:13:32.524Z,65.10
2019-05-23T17:16:07.027Z,64.10
2019-05-23T17:18:56.891Z,64.30
2019-05-23T17:21:39.027Z,63.60
2019-05-23T17:24:20.921Z,65.70
2019-05-23T17:27:03.128Z,66.20
2019-05-23T17:29:41.504Z,65.70
2019-05-23T17:32:12.463Z,65.30
2019-05-23T17:34:41.036Z,65.10
2019-05-23T17:37:10.320Z,65.00
2019-05-23T17:39:39.996Z,64.20
2019-05-23T17:42:09.023Z,67.10
2019-05-23T17:44:37.647Z,65.40
2019-05-23T17:47:06.211Z,64.70
2019-05-23T17:49:35.866Z,67.10
2019-05-23T17:52:04.631Z,67.60
2019-05-23T17:54:33.286Z,66.70
2019-05-23T17:57:01.875Z,65.20
2019-05-23T17:59:30.807Z,68.00
2019-05-23T18:01:59.726Z,66.90
2019-05-23T18:04:28.702Z,67.20
2019-05-23T18:06:57.314Z,68.50
2019-05-23T18:09:26.767Z,68.70
2019-05-23T18:11:55.744Z,67.00
2019-05-23T18:14:24.304Z,69.90
2019-05-23T18:16:52.964Z,70.80
2019-05-23T18:19:21.796Z,68.80
2019-05-23T18:21:51.067Z,75.80
2019-05-23T18:24:20.440Z,77.50
2019-05-23T18:26:49.161Z,78.00
2019-05-23T18:29:18.163Z,75.50
2019-05-23T18:31:47.707Z,80.90
2019-05-23T18:34:16.350Z,83.20
2019-05-23T18:36:44.946Z,85.10
2019-05-23T18:39:16.344Z,87.90
2019-05-23T18:41:45.119Z,90.50
2019-05-23T18:44:14.217Z,88.20
2019-05-23T18:46:46.464Z,89.20
2019-05-23T18:49:15.735Z,91.40
2019-05-23T18:51:44.538Z,90.40
2019-05-23T18:54:13.717Z,90.60
2019-05-23T18:56:42.273Z,87.80
2019-05-23T18:59:11.351Z,91.20
2019-05-23T19:01:40.327Z,91.90
2019-05-23T19:04:08.978Z,91.70
2019-05-23T19:06:37.573Z,91.20
2019-05-23T19:09:10.116Z,92.50
2019-05-23T19:11:38.979Z,92.70
2019-05-23T19:14:08.071Z,93.00
2019-05-23T19:16:37.121Z,93.80
2019-05-23T19:19:05.976Z,95.20
2019-05-23T19:21:35.050Z,94.90
2019-05-23T19:24:04.690Z,94.80
2019-05-23T19:26:33.256Z,94.50
2019-05-23T19:29:02.746Z,93.60
2019-05-23T19:31:31.458Z,93.10
2019-05-23T19:34:00.432Z,95.40
2019-05-23T19:36:29.169Z,95.40
2019-05-23T19:38:57.790Z,95.70
2019-05-23T19:41:36.681Z,94.80
2019-05-23T19:43:57.363Z,95.60
2019-05-23T19:46:25.932Z,94.70
2019-05-23T19:48:55.053Z,95.00
2019-05-23T19:51:23.640Z,94.90
2019-05-23T19:53:53.192Z,95.90
2019-05-23T19:56:21.748Z,94.90
2019-05-23T19:58:50.348Z,96.20
2019-05-23T20:01:20.019Z,96.00
2019-05-23T20:03:49.103Z,96.20
2019-05-23T20:06:17.791Z,96.20
2019-05-23T20:08:47.946Z,96.60
2019-05-23T20:11:16.788Z,96.50
2019-05-23T20:13:45.590Z,95.90
2019-05-23T20:16:14.491Z,96.80
2019-05-23T20:18:43.059Z,97.50
2019-05-23T20:21:11.663Z,96.90
2019-05-23T20:23:40.275Z,97.40
2019-05-23T20:26:09.428Z,97.10
2019-05-23T20:28:40.048Z,97.30
2019-05-23T20:31:09.845Z,97.30
2019-05-23T20:33:38.431Z,97.90
2019-05-23T20:36:13.188Z,98.70
2019-05-23T20:38:42.202Z,99.90
2019-05-23T20:41:10.891Z,98.30
2019-05-23T20:43:39.561Z,99.90
2019-05-23T20:46:08.126Z,99.90
2019-05-23T20:48:37.362Z,99.50
2019-05-23T20:51:05.955Z,99.50
2019-05-23T20:53:34.802Z,99.20
2019-05-23T20:56:03.487Z,99.90
2019-05-23T20:58:32.192Z,99.10
2019-05-23T21:01:11.803Z,99.90
2019-05-23T21:03:40.656Z,99.90
2019-05-23T21:06:09.536Z,99.90
2019-05-23T21:08:38.103Z,99.90
2019-05-23T21:11:06.712Z,99.90
2019-05-23T21:13:35.464Z,99.90
2019-05-23T21:16:04.215Z,99.90
2019-05-23T21:18:32.853Z,99.90
2019-05-23T21:21:01.721Z,99.90
2019-05-23T21:23:30.303Z,99.90
2019-05-23T21:26:05.123Z,99.90
2019-05-23T21:28:33.951Z,99.90
2019-05-23T21:31:02.787Z,99.90
2019-05-23T21:33:31.722Z,99.90
2019-05-23T21:36:00.355Z,99.90
2019-05-23T21:38:29.006Z,99.90
2019-05-23T21:40:57.636Z,99.90
2019-05-23T21:43:26.202Z,99.90
2019-05-23T21:45:55.356Z,99.90
2019-05-23T21:48:23.950Z,99.90
2019-05-23T21:50:52.635Z,99.90
2019-05-23T21:53:21.219Z,99.90
2019-05-23T21:55:49.846Z,99.90
2019-05-23T21:58:18.486Z,99.90
